createdAt,value
2018-08-04T00:02:15.257Z,100963.00
2018-08-04T00:04:48.980Z,100969.00
2018-08-04T00:07:22.881Z,100968.00
2018-08-04T00:09:55.310Z,100971.00
2018-08-04T00:12:29.754Z,100971.00
2018-08-04T00:15:01.909Z,100973.00
2018-08-04T00:17:33.872Z,100974.00
2018-08-04T00:20:04.295Z,100961.00
2018-08-04T00:22:36.746Z,100967.00
2018-08-04T00:25:12.206Z,100977.00
2018-08-04T00:27:43.896Z,100960.00
2018-08-04T00:30:15.590Z,100975.00
2018-08-04T00:32:47.637Z,100986.00
2018-08-04T00:35:21.697Z,100981.00
2018-08-04T00:37:54.671Z,100975.00
2018-08-04T00:40:26.988Z,100970.00
2018-08-04T00:43:00.856Z,100972.00
2018-08-04T00:45:32.628Z,100970.00
2018-08-04T00:48:05.781Z,100972.00
2018-08-04T00:50:40.851Z,100974.00
2018-08-04T00:53:16.379Z,100967.00
2018-08-04T00:55:49.317Z,100972.00
2018-08-04T00:58:22.868Z,100981.00
2018-08-04T01:00:56.880Z,100981.00
2018-08-04T01:03:27.698Z,100984.00
2018-08-04T01:06:01.342Z,100982.00
2018-08-04T01:08:33.555Z,100974.00
2018-08-04T01:11:07.033Z,100979.00
2018-08-04T01:13:39.658Z,100971.00
2018-08-04T01:16:10.319Z,100977.00
2018-08-04T01:18:40.983Z,100973.00
2018-08-04T01:21:11.024Z,100975.00
2018-08-04T01:23:41.095Z,100967.00
2018-08-04T01:26:12.175Z,100977.00
2018-08-04T01:28:42.201Z,100972.00
2018-08-04T01:31:13.994Z,100968.00
2018-08-04T01:33:44.735Z,100973.00
2018-08-04T01:36:16.832Z,100971.00
2018-08-04T01:38:49.638Z,100976.00
2018-08-04T01:41:21.735Z,100979.00
2018-08-04T01:43:55.796Z,100970.00
2018-08-04T01:46:28.128Z,100975.00
2018-08-04T01:48:58.411Z,100973.00
2018-08-04T01:51:31.733Z,100969.00
2018-08-04T01:54:01.777Z,100971.00
2018-08-04T01:56:32.719Z,100968.00
2018-08-04T01:59:04.111Z,100973.00
2018-08-04T02:01:35.193Z,100975.00
2018-08-04T02:04:05.617Z,100977.00
2018-08-04T02:06:36.627Z,100978.00
2018-08-04T02:09:09.513Z,100976.00
2018-08-04T02:11:40.629Z,100975.00
2018-08-04T02:14:10.825Z,100964.00
2018-08-04T02:16:40.900Z,100966.00
2018-08-04T02:19:11.474Z,100965.00
2018-08-04T02:21:41.884Z,100968.00
2018-08-04T02:24:12.276Z,100971.00
2018-08-04T02:26:42.580Z,100969.00
2018-08-04T02:29:13.030Z,100973.00
2018-08-04T02:31:43.356Z,100969.00
2018-08-04T02:34:13.683Z,100970.00
2018-08-04T02:36:44.189Z,100985.00
2018-08-04T02:39:14.109Z,100978.00
2018-08-04T02:41:45.452Z,100978.00
2018-08-04T02:44:15.751Z,100985.00
2018-08-04T02:46:46.439Z,100982.00
2018-08-04T02:49:18.043Z,100982.00
2018-08-04T02:51:48.622Z,100990.00
2018-08-04T02:54:19.683Z,100989.00
2018-08-04T02:56:50.414Z,100986.00
2018-08-04T02:59:26.145Z,100975.00
2018-08-04T03:01:58.723Z,100986.00
2018-08-04T03:04:30.705Z,100986.00
2018-08-04T03:07:01.399Z,100984.00
2018-08-04T03:09:31.941Z,100986.00
2018-08-04T03:12:03.704Z,100986.00
2018-08-04T03:14:35.165Z,100984.00
2018-08-04T03:17:05.842Z,100982.00
2018-08-04T03:19:35.959Z,100980.00
2018-08-04T03:22:06.502Z,100975.00
2018-08-04T03:24:37.504Z,100967.00
2018-08-04T03:27:07.812Z,100971.00
2018-08-04T03:29:38.162Z,100970.00
2018-08-04T03:32:08.655Z,100964.00
2018-08-04T03:34:38.656Z,100976.00
2018-08-04T03:37:08.762Z,100955.00
2018-08-04T03:39:38.945Z,100958.00
2018-08-04T03:42:09.109Z,100949.00
2018-08-04T03:44:39.385Z,100959.00
2018-08-04T03:47:09.889Z,100950.00
2018-08-04T03:49:40.285Z,100962.00
2018-08-04T03:52:12.019Z,100966.00
2018-08-04T03:54:43.310Z,100958.00
2018-08-04T03:57:13.690Z,100964.00
2018-08-04T03:59:43.714Z,100960.00
2018-08-04T04:02:14.312Z,100956.00
2018-08-04T04:04:44.522Z,100965.00
2018-08-04T04:07:14.665Z,100958.00
2018-08-04T04:09:45.373Z,100950.00
2018-08-04T04:12:16.021Z,100956.00
2018-08-04T04:14:47.181Z,100962.00
2018-08-04T04:17:17.553Z,100964.00
2018-08-04T04:19:47.853Z,100966.00
2018-08-04T04:22:19.994Z,100961.00
2018-08-04T04:24:50.439Z,100967.00
2018-08-04T04:27:20.497Z,100963.00
2018-08-04T04:29:50.577Z,100968.00
2018-08-04T04:32:20.931Z,100974.00
2018-08-04T04:34:51.179Z,100967.00
2018-08-04T04:37:21.635Z,100980.00
2018-08-04T04:39:51.656Z,100981.00
2018-08-04T04:42:22.097Z,100976.00
2018-08-04T04:44:52.091Z,100980.00
2018-08-04T04:47:23.086Z,100986.00
2018-08-04T04:49:53.565Z,100994.00
2018-08-04T04:52:25.679Z,100998.00
2018-08-04T04:54:56.515Z,100991.00
2018-08-04T04:57:26.658Z,100994.00
2018-08-04T04:59:57.331Z,101003.00
2018-08-04T05:02:27.554Z,101003.00
2018-08-04T05:04:58.075Z,101002.00
2018-08-04T05:07:28.253Z,101001.00
2018-08-04T05:09:58.180Z,101007.00
2018-08-04T05:12:28.893Z,101015.00
2018-08-04T05:14:59.276Z,101024.00
2018-08-04T05:17:29.610Z,101027.00
2018-08-04T05:20:00.704Z,101025.00
2018-08-04T05:22:33.194Z,101038.00
2018-08-04T05:25:03.594Z,101022.00
2018-08-04T05:27:35.298Z,101033.00
2018-08-04T05:30:06.920Z,101025.00
2018-08-04T05:32:37.586Z,101028.00
2018-08-04T05:35:07.603Z,101030.00
2018-08-04T05:37:38.031Z,101027.00
2018-08-04T05:40:08.326Z,101037.00
2018-08-04T05:42:38.763Z,101041.00
2018-08-04T05:45:10.713Z,101033.00
2018-08-04T05:47:41.436Z,101042.00
2018-08-04T05:50:11.695Z,101043.00
2018-08-04T05:52:43.438Z,101042.00
2018-08-04T05:55:15.565Z,101042.00
2018-08-04T05:57:47.302Z,101049.00
2018-08-04T06:00:19.613Z,101049.00
2018-08-04T06:02:50.272Z,101044.00
2018-08-04T06:05:20.439Z,101053.00
2018-08-04T06:07:50.880Z,101051.00
2018-08-04T06:10:21.069Z,101061.00
2018-08-04T06:12:51.282Z,101048.00
2018-08-04T06:15:22.265Z,101050.00
2018-08-04T06:17:52.482Z,101051.00
2018-08-04T06:20:22.866Z,101060.00
2018-08-04T06:22:53.210Z,101064.00
2018-08-04T06:25:26.156Z,101070.00
2018-08-04T06:27:57.488Z,101072.00
2018-08-04T06:30:27.536Z,101065.00
2018-08-04T06:32:58.334Z,101075.00
2018-08-04T06:35:29.466Z,101080.00
2018-08-04T06:37:59.935Z,101073.00
2018-08-04T06:40:30.901Z,101072.00
2018-08-04T06:43:01.751Z,101081.00
2018-08-04T06:45:33.976Z,101074.00
2018-08-04T06:48:04.268Z,101083.00
2018-08-04T06:50:34.411Z,101077.00
2018-08-04T06:53:05.407Z,101064.00
2018-08-04T06:55:36.174Z,101074.00
2018-08-04T06:58:06.592Z,101070.00
2018-08-04T07:00:36.567Z,101078.00
2018-08-04T07:03:06.958Z,101077.00
2018-08-04T07:05:37.110Z,101087.00
2018-08-04T07:08:07.447Z,101086.00
2018-08-04T07:10:37.690Z,101088.00
2018-08-04T07:13:08.469Z,101089.00
2018-08-04T07:15:39.919Z,101089.00
2018-08-04T07:18:10.550Z,101102.00
2018-08-04T07:20:41.123Z,101096.00
2018-08-04T07:23:11.823Z,101111.00
2018-08-04T07:25:42.211Z,101103.00
2018-08-04T07:28:12.790Z,101106.00
2018-08-04T07:30:42.889Z,101106.00
2018-08-04T07:33:14.013Z,101105.00
2018-08-04T07:35:44.333Z,101110.00
2018-08-04T07:38:15.274Z,101107.00
2018-08-04T07:40:45.668Z,101107.00
2018-08-04T07:43:15.969Z,101110.00
2018-08-04T07:45:46.044Z,101111.00
2018-08-04T07:48:16.698Z,101111.00
2018-08-04T07:50:46.918Z,101117.00
2018-08-04T07:53:17.811Z,101130.00
2018-08-04T07:55:51.046Z,101128.00
2018-08-04T07:58:21.411Z,101134.00
2018-08-04T08:00:53.566Z,101143.00
2018-08-04T08:03:23.961Z,101141.00
2018-08-04T08:05:53.985Z,101139.00
2018-08-04T08:08:24.293Z,101135.00
2018-08-04T08:10:55.244Z,101144.00
2018-08-04T08:13:28.349Z,101144.00
2018-08-04T08:15:58.671Z,101138.00
2018-08-04T08:18:30.393Z,101142.00
2018-08-04T08:21:00.594Z,101145.00
2018-08-04T08:23:31.229Z,101127.00
2018-08-04T08:26:08.010Z,101127.00
2018-08-04T08:28:39.340Z,101126.00
2018-08-04T08:31:11.661Z,101144.00
2018-08-04T08:33:42.376Z,101139.00
2018-08-04T08:36:13.482Z,101128.00
2018-08-04T08:38:44.939Z,101126.00
2018-08-04T08:41:15.618Z,101135.00
2018-08-04T08:43:46.625Z,101141.00
2018-08-04T08:46:17.105Z,101128.00
2018-08-04T08:48:47.157Z,101121.00
2018-08-04T08:51:17.605Z,101117.00
2018-08-04T08:53:48.356Z,101128.00
2018-08-04T08:56:18.822Z,101134.00
2018-08-04T08:58:49.119Z,101126.00
2018-08-04T09:01:20.214Z,101123.00
2018-08-04T09:03:50.824Z,101134.00
2018-08-04T09:06:21.315Z,101126.00
2018-08-04T09:08:51.563Z,101129.00
2018-08-04T09:11:21.834Z,101143.00
2018-08-04T09:13:53.047Z,101129.00
2018-08-04T09:16:24.285Z,101123.00
2018-08-04T09:18:55.344Z,101118.00
2018-08-04T09:21:25.892Z,101126.00
2018-08-04T09:23:56.630Z,101136.00
2018-08-04T09:26:27.929Z,101148.00
2018-08-04T09:28:59.586Z,101136.00
2018-08-04T09:31:30.067Z,101134.00
2018-08-04T09:34:00.952Z,101146.00
2018-08-04T09:36:32.852Z,101136.00
2018-08-04T09:39:05.864Z,101138.00
2018-08-04T09:41:36.206Z,101129.00
2018-08-04T09:44:07.138Z,101137.00
2018-08-04T09:46:39.005Z,101136.00
2018-08-04T09:49:09.249Z,101140.00
2018-08-04T09:51:40.027Z,101143.00
2018-08-04T09:54:10.154Z,101138.00
2018-08-04T09:56:41.042Z,101137.00
2018-08-04T09:59:12.456Z,101143.00
2018-08-04T10:01:42.758Z,101153.00
2018-08-04T10:04:12.901Z,101148.00
2018-08-04T10:06:44.437Z,101142.00
2018-08-04T10:09:14.934Z,101141.00
2018-08-04T10:11:45.296Z,101142.00
2018-08-04T10:14:15.262Z,101158.00
2018-08-04T10:16:46.444Z,101148.00
2018-08-04T10:19:17.062Z,101157.00
2018-08-04T10:21:47.467Z,101152.00
2018-08-04T10:24:19.325Z,101146.00
2018-08-04T10:26:49.598Z,101149.00
2018-08-04T10:29:22.474Z,101157.00
2018-08-04T10:31:53.085Z,101153.00
2018-08-04T10:34:23.868Z,101153.00
2018-08-04T10:36:54.219Z,101149.00
2018-08-04T10:39:24.622Z,101146.00
2018-08-04T10:41:55.590Z,101155.00
2018-08-04T10:44:26.487Z,101146.00
2018-08-04T10:46:57.866Z,101142.00
2018-08-04T10:49:28.942Z,101142.00
2018-08-04T10:51:59.730Z,101159.00
2018-08-04T10:54:30.441Z,101158.00
2018-08-04T10:57:00.608Z,101159.00
2018-08-04T10:59:32.423Z,101157.00
2018-08-04T11:02:02.597Z,101147.00
2018-08-04T11:04:33.850Z,101146.00
2018-08-04T11:07:04.362Z,101151.00
2018-08-04T11:09:34.715Z,101153.00
2018-08-04T11:12:05.704Z,101152.00
2018-08-04T11:14:35.649Z,101150.00
2018-08-04T11:17:06.743Z,101147.00
2018-08-04T11:19:36.920Z,101154.00
2018-08-04T11:22:13.867Z,101157.00
2018-08-04T11:24:44.493Z,101151.00
2018-08-04T11:27:15.548Z,101146.00
2018-08-04T11:29:47.025Z,101146.00
2018-08-04T11:32:17.350Z,101151.00
2018-08-04T11:34:47.425Z,101151.00
2018-08-04T11:37:17.596Z,101151.00
2018-08-04T11:39:48.950Z,101151.00
2018-08-04T11:42:21.042Z,101146.00
2018-08-04T11:44:54.214Z,101149.00
2018-08-04T11:47:25.609Z,101150.00
2018-08-04T11:49:57.195Z,101145.00
2018-08-04T11:52:27.860Z,101150.00
2018-08-04T11:54:58.097Z,101151.00
2018-08-04T11:57:29.905Z,101151.00
2018-08-04T12:00:00.543Z,101154.00
2018-08-04T12:02:31.413Z,101142.00
2018-08-04T12:05:02.276Z,101151.00
2018-08-04T12:07:32.877Z,101160.00
2018-08-04T12:10:04.104Z,101141.00
2018-08-04T12:12:36.110Z,101140.00
2018-08-04T12:15:06.306Z,101141.00
2018-08-04T12:17:40.647Z,101142.00
2018-08-04T12:20:12.420Z,101133.00
2018-08-04T12:22:42.581Z,101131.00
2018-08-04T12:25:13.765Z,101124.00
2018-08-04T12:27:45.415Z,101141.00
2018-08-04T12:30:17.746Z,101136.00
2018-08-04T12:32:49.475Z,101123.00
2018-08-04T12:35:19.678Z,101126.00
2018-08-04T12:37:51.121Z,101122.00
2018-08-04T12:40:22.191Z,101125.00
2018-08-04T12:42:56.821Z,101127.00
2018-08-04T12:45:29.373Z,101122.00
2018-08-04T12:48:00.617Z,101122.00
2018-08-04T12:50:30.814Z,101122.00
2018-08-04T12:53:02.805Z,101125.00
2018-08-04T12:55:35.809Z,101122.00
2018-08-04T12:58:07.735Z,101115.00
2018-08-04T13:00:38.517Z,101129.00
2018-08-04T13:03:08.898Z,101125.00
2018-08-04T13:05:39.225Z,101126.00
2018-08-04T13:08:09.583Z,101136.00
2018-08-04T13:10:39.765Z,101126.00
2018-08-04T13:13:10.320Z,101129.00
2018-08-04T13:15:40.454Z,101130.00
2018-08-04T13:18:11.602Z,101126.00
2018-08-04T13:20:42.682Z,101122.00
2018-08-04T13:23:14.029Z,101107.00
2018-08-04T13:25:45.579Z,101123.00
2018-08-04T13:28:18.507Z,101122.00
2018-08-04T13:30:49.726Z,101122.00
2018-08-04T13:33:20.289Z,101118.00
2018-08-04T13:35:50.984Z,101117.00
2018-08-04T13:38:22.060Z,101114.00
2018-08-04T13:40:52.736Z,101113.00
2018-08-04T13:43:23.739Z,101108.00
2018-08-04T13:50:45.303Z,101102.00
2018-08-04T13:53:15.420Z,101101.00
2018-08-04T13:55:46.190Z,101094.00
2018-08-04T13:58:16.472Z,101090.00
2018-08-04T14:00:46.690Z,101088.00
2018-08-04T14:03:16.766Z,101077.00
2018-08-04T14:05:47.172Z,101082.00
2018-08-04T14:08:17.858Z,101073.00
2018-08-04T14:10:48.357Z,101074.00
2018-08-04T14:13:19.060Z,101071.00
2018-08-04T14:15:51.894Z,101080.00
2018-08-04T14:18:22.801Z,101086.00
2018-08-04T14:20:54.534Z,101082.00
2018-08-04T14:23:24.917Z,101088.00
2018-08-04T14:25:56.171Z,101084.00
2018-08-04T14:28:26.112Z,101082.00
2018-08-04T14:30:57.182Z,101080.00
2018-08-04T14:33:27.626Z,101081.00
2018-08-04T14:35:58.437Z,101088.00
2018-08-04T14:38:29.825Z,101084.00
2018-08-04T14:41:00.238Z,101088.00
2018-08-04T14:43:30.650Z,101088.00
2018-08-04T14:46:01.793Z,101091.00
2018-08-04T14:48:33.812Z,101094.00
2018-08-04T14:51:03.913Z,101086.00
2018-08-04T14:53:34.215Z,101090.00
2018-08-04T14:56:05.403Z,101084.00
2018-08-04T14:58:35.793Z,101089.00
2018-08-04T15:01:06.486Z,101101.00
2018-08-04T15:03:37.114Z,101089.00
2018-08-04T15:06:07.490Z,101092.00
2018-08-04T15:08:37.837Z,101088.00
2018-08-04T15:11:09.321Z,101093.00
2018-08-04T15:13:39.712Z,101104.00
2018-08-04T15:16:09.893Z,101096.00
2018-08-04T15:18:41.365Z,101099.00
2018-08-04T15:21:12.533Z,101093.00
2018-08-04T15:23:43.401Z,101089.00
2018-08-04T15:26:15.583Z,101088.00
2018-08-04T15:28:46.567Z,101090.00
2018-08-04T15:31:17.096Z,101083.00
2018-08-04T15:33:48.255Z,101082.00
2018-08-04T15:36:19.846Z,101076.00
2018-08-04T15:38:50.257Z,101082.00
2018-08-04T15:41:21.857Z,101082.00
2018-08-04T15:43:52.527Z,101087.00
2018-08-04T15:46:22.847Z,101082.00
2018-08-04T15:48:52.981Z,101080.00
2018-08-04T15:51:23.112Z,101078.00
2018-08-04T15:53:53.977Z,101071.00
2018-08-04T15:56:26.071Z,101082.00
2018-08-04T15:58:56.528Z,101081.00
2018-08-04T16:01:26.871Z,101076.00
2018-08-04T16:03:56.991Z,101085.00
2018-08-04T16:06:28.075Z,101081.00
2018-08-04T16:08:58.458Z,101091.00
2018-08-04T16:11:28.969Z,101078.00
2018-08-04T16:13:59.311Z,101081.00
2018-08-04T16:16:29.299Z,101080.00
2018-08-04T16:18:59.896Z,101074.00
2018-08-04T16:21:30.463Z,101078.00
2018-08-04T16:24:00.529Z,101073.00
2018-08-04T16:26:30.873Z,101074.00
2018-08-04T16:29:02.102Z,101072.00
2018-08-04T16:31:32.279Z,101067.00
2018-08-04T16:34:02.371Z,101071.00
2018-08-04T16:36:32.447Z,101075.00
2018-08-04T16:39:02.573Z,101072.00
2018-08-04T16:41:33.032Z,101069.00
2018-08-04T16:44:03.459Z,101071.00
2018-08-04T16:46:33.595Z,101070.00
2018-08-04T16:49:03.829Z,101075.00
2018-08-04T16:51:34.797Z,101069.00
2018-08-04T16:54:05.091Z,101079.00
2018-08-04T16:56:35.679Z,101075.00
2018-08-04T16:59:08.043Z,101080.00
2018-08-04T17:01:38.986Z,101074.00
2018-08-04T17:04:11.218Z,101085.00
2018-08-04T17:06:41.079Z,101071.00
2018-08-04T17:09:13.021Z,101072.00
2018-08-04T17:11:43.413Z,101076.00
2018-08-04T17:14:14.250Z,101076.00
2018-08-04T17:16:44.521Z,101071.00
2018-08-04T17:19:14.816Z,101071.00
2018-08-04T17:21:45.004Z,101079.00
2018-08-04T17:24:15.162Z,101078.00
2018-08-04T17:26:47.634Z,101075.00
2018-08-04T17:29:18.265Z,101078.00
2018-08-04T17:31:48.325Z,101075.00
2018-08-04T17:34:20.074Z,101078.00
2018-08-04T17:36:50.371Z,101087.00
2018-08-04T17:39:21.197Z,101068.00
2018-08-04T17:41:51.703Z,101078.00
2018-08-04T17:44:22.261Z,101079.00
2018-08-04T17:46:52.453Z,101077.00
2018-08-04T17:49:24.889Z,101073.00
2018-08-04T17:51:57.463Z,101078.00
2018-08-04T17:54:28.869Z,101075.00
2018-08-04T17:56:59.600Z,101076.00
2018-08-04T17:59:30.288Z,101085.00
2018-08-04T18:02:01.786Z,101088.00
2018-08-04T18:04:32.949Z,101091.00
2018-08-04T18:07:04.142Z,101090.00
2018-08-04T18:09:34.212Z,101085.00
2018-08-04T18:12:05.511Z,101093.00
2018-08-04T18:14:35.368Z,101099.00
2018-08-04T18:17:05.950Z,101095.00
2018-08-04T18:19:36.385Z,101104.00
2018-08-04T18:22:06.816Z,101100.00
2018-08-04T18:24:37.164Z,101104.00
2018-08-04T18:27:09.126Z,101103.00
2018-08-04T18:29:40.339Z,101094.00
2018-08-04T18:32:11.529Z,101103.00
2018-08-04T18:34:42.622Z,101104.00
2018-08-04T18:37:13.984Z,101108.00
2018-08-04T18:39:45.600Z,101110.00
2018-08-04T18:42:15.726Z,101107.00
2018-08-04T18:44:46.150Z,101119.00
2018-08-04T18:47:16.702Z,101115.00
2018-08-04T18:49:46.892Z,101121.00
2018-08-04T18:52:17.969Z,101116.00
2018-08-04T18:54:48.749Z,101122.00
2018-08-04T18:57:19.189Z,101125.00
2018-08-04T18:59:50.281Z,101132.00
2018-08-04T19:02:20.917Z,101134.00
2018-08-04T19:04:51.089Z,101127.00
2018-08-04T19:07:21.667Z,101125.00
2018-08-04T19:09:51.660Z,101132.00
2018-08-04T19:12:28.738Z,101138.00
2018-08-04T19:14:58.675Z,101135.00
2018-08-04T19:17:35.628Z,101143.00
2018-08-04T19:20:06.649Z,101140.00
2018-08-04T19:22:37.733Z,101135.00
2018-08-04T19:25:07.998Z,101134.00
2018-08-04T19:27:38.394Z,101137.00
2018-08-04T19:30:09.509Z,101135.00
2018-08-04T19:32:39.715Z,101147.00
2018-08-04T19:35:10.392Z,101146.00
2018-08-04T19:37:41.766Z,101140.00
2018-08-04T19:40:12.057Z,101150.00
2018-08-04T19:42:42.399Z,101148.00
2018-08-04T19:45:12.126Z,101152.00
2018-08-04T19:47:42.282Z,101146.00
2018-08-04T19:50:12.737Z,101153.00
2018-08-04T19:52:43.379Z,101157.00
2018-08-04T19:55:13.627Z,101141.00
2018-08-04T19:57:44.881Z,101149.00
2018-08-04T20:00:15.602Z,101145.00
2018-08-04T20:02:45.800Z,101146.00
2018-08-04T20:05:16.162Z,101150.00
2018-08-04T20:07:46.561Z,101150.00
2018-08-04T20:10:16.849Z,101150.00
2018-08-04T20:12:47.078Z,101156.00
2018-08-04T20:15:18.613Z,101158.00
2018-08-04T20:17:48.949Z,101161.00
2018-08-04T20:20:19.409Z,101162.00
2018-08-04T20:22:49.986Z,101162.00
2018-08-04T20:25:20.283Z,101170.00
2018-08-04T20:27:50.635Z,101164.00
2018-08-04T20:30:20.803Z,101169.00
2018-08-04T20:32:51.205Z,101171.00
2018-08-04T20:35:21.726Z,101166.00
2018-08-04T20:37:52.011Z,101173.00
2018-08-04T20:40:23.341Z,101178.00
2018-08-04T20:42:53.858Z,101171.00
2018-08-04T20:45:24.037Z,101176.00
2018-08-04T20:47:55.501Z,101177.00
2018-08-04T20:50:27.117Z,101169.00
2018-08-04T20:52:58.104Z,101169.00
2018-08-04T20:55:29.205Z,101181.00
2018-08-04T20:58:00.392Z,101181.00
2018-08-04T21:00:41.598Z,101184.00
2018-08-04T21:03:13.297Z,101192.00
2018-08-04T21:05:43.586Z,101183.00
2018-08-04T21:08:14.704Z,101186.00
2018-08-04T21:10:48.006Z,101183.00
2018-08-04T21:13:19.578Z,101184.00
2018-08-04T21:15:50.582Z,101189.00
2018-08-04T21:18:22.956Z,101194.00
2018-08-04T21:20:59.457Z,101182.00
2018-08-04T21:23:30.926Z,101187.00
2018-08-04T21:26:01.487Z,101182.00
2018-08-04T21:28:32.481Z,101184.00
2018-08-04T21:31:03.083Z,101185.00
2018-08-04T21:33:36.308Z,101185.00
2018-08-04T21:36:06.482Z,101177.00
2018-08-04T21:38:36.670Z,101181.00
2018-08-04T21:41:07.590Z,101178.00
2018-08-04T21:43:38.426Z,101182.00
2018-08-04T21:46:08.751Z,101181.00
2018-08-04T21:48:38.918Z,101172.00
2018-08-04T21:51:09.261Z,101178.00
2018-08-04T21:53:39.461Z,101187.00
2018-08-04T21:56:09.431Z,101172.00
2018-08-04T21:58:40.006Z,101174.00
2018-08-04T22:01:14.271Z,101180.00
2018-08-04T22:03:45.547Z,101181.00
2018-08-04T22:06:17.455Z,101184.00
2018-08-04T22:09:04.175Z,101172.00
2018-08-04T22:11:34.916Z,101175.00
2018-08-04T22:14:05.157Z,101177.00
2018-08-04T22:16:35.649Z,101181.00
2018-08-04T22:19:06.575Z,101181.00
2018-08-04T22:21:36.970Z,101180.00
2018-08-04T22:24:07.478Z,101178.00
2018-08-04T22:26:37.690Z,101179.00
2018-08-04T22:29:07.887Z,101179.00
2018-08-04T22:31:38.732Z,101180.00
2018-08-04T22:34:08.877Z,101170.00
2018-08-04T22:36:40.108Z,101173.00
2018-08-04T22:39:10.158Z,101182.00
2018-08-04T22:41:40.225Z,101173.00
2018-08-04T22:44:10.511Z,101170.00
2018-08-04T22:46:40.671Z,101173.00
2018-08-04T22:49:10.849Z,101168.00
2018-08-04T22:51:41.021Z,101166.00
2018-08-04T22:54:11.393Z,101163.00
2018-08-04T22:56:41.595Z,101157.00
2018-08-04T22:59:11.905Z,101171.00
2018-08-04T23:01:42.108Z,101178.00
2018-08-04T23:04:12.226Z,101161.00
2018-08-04T23:06:42.401Z,101164.00
2018-08-04T23:09:12.784Z,101164.00
2018-08-04T23:11:42.849Z,101161.00
2018-08-04T23:14:14.169Z,101160.00
2018-08-04T23:16:44.772Z,101166.00
2018-08-04T23:19:15.333Z,101163.00
2018-08-04T23:21:45.782Z,101164.00
2018-08-04T23:24:15.936Z,101162.00
2018-08-04T23:26:46.840Z,101152.00
2018-08-04T23:29:16.937Z,101164.00
2018-08-04T23:31:47.043Z,101165.00
2018-08-04T23:34:17.381Z,101162.00
2018-08-04T23:36:47.597Z,101164.00
2018-08-04T23:39:18.698Z,101159.00
2018-08-04T23:41:48.993Z,101161.00
2018-08-04T23:44:19.497Z,101166.00
2018-08-04T23:46:49.895Z,101169.00
2018-08-04T23:49:20.728Z,101171.00
2018-08-04T23:51:51.032Z,101175.00
2018-08-04T23:54:21.193Z,101173.00
2018-08-04T23:56:51.537Z,101165.00
2018-08-04T23:59:21.838Z,101171.00
